sensor_id;sensor_type;location;lat;lon;timestamp;pressure;altitude;pressure_sealevel;temperature;humidity
63694;BME280;49839;51.798;10.954;2022-09-03T00:01:12;99175.97;;;14.93;nan
63694;BME280;49839;51.798;10.954;2022-09-03T00:03:46;99172.84;;;14.88;nan
63694;BME280;49839;51.798;10.954;2022-09-03T00:06:20;99181.00;;;14.85;nan
63694;BME280;49839;51.798;10.954;2022-09-03T00:08:54;99171.56;;;14.81;nan
63694;BME280;49839;51.798;10.954;2022-09-03T00:11:29;99175.41;;;14.77;nan
63694;BME280;49839;51.798;10.954;2022-09-03T00:14:02;99168.59;;;14.73;nan
63694;BME280;49839;51.798;10.954;2022-09-03T00:16:39;99169.03;;;14.67;nan
63694;BME280;49839;51.798;10.954;2022-09-03T00:19:08;99165.00;;;14.61;nan
63694;BME280;49839;51.798;10.954;2022-09-03T00:21:40;99165.56;;;14.53;nan
63694;BME280;49839;51.798;10.954;2022-09-03T00:24:12;99161.31;;;14.51;nan
63694;BME280;49839;51.798;10.954;2022-09-03T00:26:46;99164.09;;;14.49;nan
63694;BME280;49839;51.798;10.954;2022-09-03T00:29:20;99165.22;;;14.45;nan
63694;BME280;49839;51.798;10.954;2022-09-03T00:31:52;99173.16;;;14.45;nan
63694;BME280;49839;51.798;10.954;2022-09-03T00:34:25;99166.19;;;14.44;nan
63694;BME280;49839;51.798;10.954;2022-09-03T00:36:56;99170.94;;;14.39;nan
63694;BME280;49839;51.798;10.954;2022-09-03T00:39:26;99163.41;;;14.33;nan
63694;BME280;49839;51.798;10.954;2022-09-03T00:42:09;99163.53;;;14.31;nan
63694;BME280;49839;51.798;10.954;2022-09-03T00:44:51;99165.75;;;14.25;nan
63694;BME280;49839;51.798;10.954;2022-09-03T00:47:26;99163.09;;;14.25;nan
63694;BME280;49839;51.798;10.954;2022-09-03T00:50:03;99156.13;;;14.24;nan
63694;BME280;49839;51.798;10.954;2022-09-03T00:52:41;99157.91;;;14.23;nan
63694;BME280;49839;51.798;10.954;2022-09-03T00:55:20;99153.66;;;14.21;nan
63694;BME280;49839;51.798;10.954;2022-09-03T00:57:57;99153.78;;;14.19;nan
63694;BME280;49839;51.798;10.954;2022-09-03T01:00:28;99155.69;;;14.17;nan
63694;BME280;49839;51.798;10.954;2022-09-03T01:03:04;99153.78;;;14.19;nan
63694;BME280;49839;51.798;10.954;2022-09-03T01:05:45;99155.69;;;14.17;nan
63694;BME280;49839;51.798;10.954;2022-09-03T01:08:34;99159.19;;;14.18;nan
63694;BME280;49839;51.798;10.954;2022-09-03T01:11:14;99155.56;;;14.19;nan
63694;BME280;49839;51.798;10.954;2022-09-03T01:13:53;99156.72;;;14.15;nan
63694;BME280;49839;51.798;10.954;2022-09-03T01:16:29;99162.56;;;14.07;nan
63694;BME280;49839;51.798;10.954;2022-09-03T01:19:03;99156.94;;;13.99;nan
63694;BME280;49839;51.798;10.954;2022-09-03T01:21:52;99158.09;;;13.95;nan
63694;BME280;49839;51.798;10.954;2022-09-03T01:24:40;99153.94;;;13.91;nan
63694;BME280;49839;51.798;10.954;2022-09-03T01:27:21;99158.50;;;13.89;nan
63694;BME280;49839;51.798;10.954;2022-09-03T01:30:02;99153.63;;;13.82;nan
63694;BME280;49839;51.798;10.954;2022-09-03T01:32:38;99160.09;;;13.78;nan
63694;BME280;49839;51.798;10.954;2022-09-03T01:35:16;99165.59;;;13.75;nan
63694;BME280;49839;51.798;10.954;2022-09-03T01:37:56;99165.88;;;13.71;nan
63694;BME280;49839;51.798;10.954;2022-09-03T01:40:34;99159.13;;;13.67;nan
63694;BME280;49839;51.798;10.954;2022-09-03T01:46:07;99165.00;;;13.58;nan
63694;BME280;49839;51.798;10.954;2022-09-03T01:48:42;99166.06;;;13.55;nan
63694;BME280;49839;51.798;10.954;2022-09-03T01:51:18;99165.41;;;13.51;nan
63694;BME280;49839;51.798;10.954;2022-09-03T01:54:23;99167.44;;;13.48;nan
63694;BME280;49839;51.798;10.954;2022-09-03T01:57:23;99164.13;;;13.44;nan
63694;BME280;49839;51.798;10.954;2022-09-03T02:00:05;99164.53;;;13.38;nan
63694;BME280;49839;51.798;10.954;2022-09-03T02:02:34;99165.47;;;13.37;nan
63694;BME280;49839;51.798;10.954;2022-09-03T02:05:06;99162.09;;;13.35;nan
63694;BME280;49839;51.798;10.954;2022-09-03T02:07:36;99148.19;;;13.32;nan
63694;BME280;49839;51.798;10.954;2022-09-03T02:10:07;99160.78;;;13.28;nan
63694;BME280;49839;51.798;10.954;2022-09-03T02:12:35;99156.47;;;13.27;nan
63694;BME280;49839;51.798;10.954;2022-09-03T02:15:08;99160.25;;;13.23;nan
63694;BME280;49839;51.798;10.954;2022-09-03T02:17:40;99170.13;;;13.19;nan
63694;BME280;49839;51.798;10.954;2022-09-03T02:20:11;99172.78;;;13.19;nan
63694;BME280;49839;51.798;10.954;2022-09-03T02:22:42;99162.28;;;13.18;nan
63694;BME280;49839;51.798;10.954;2022-09-03T02:25:09;99164.00;;;13.19;nan
63694;BME280;49839;51.798;10.954;2022-09-03T02:27:37;99159.66;;;13.18;nan
63694;BME280;49839;51.798;10.954;2022-09-03T02:30:06;99152.56;;;13.18;nan
63694;BME280;49839;51.798;10.954;2022-09-03T02:32:34;99160.50;;;13.18;nan
63694;BME280;49839;51.798;10.954;2022-09-03T02:35:03;99163.84;;;13.22;nan
63694;BME280;49839;51.798;10.954;2022-09-03T02:37:31;99157.50;;;13.24;nan
63694;BME280;49839;51.798;10.954;2022-09-03T02:39:59;99160.13;;;13.24;nan
63694;BME280;49839;51.798;10.954;2022-09-03T02:42:27;99161.66;;;13.28;nan
63694;BME280;49839;51.798;10.954;2022-09-03T02:44:59;99157.75;;;13.34;nan
63694;BME280;49839;51.798;10.954;2022-09-03T02:47:30;99160.84;;;13.41;nan
63694;BME280;49839;51.798;10.954;2022-09-03T02:49:59;99164.13;;;13.44;nan
63694;BME280;49839;51.798;10.954;2022-09-03T02:52:28;99165.81;;;13.45;nan
63694;BME280;49839;51.798;10.954;2022-09-03T02:54:55;99161.19;;;13.49;nan
63694;BME280;49839;51.798;10.954;2022-09-03T02:57:23;99160.88;;;13.53;nan
63694;BME280;49839;51.798;10.954;2022-09-03T02:59:53;99161.50;;;13.57;nan
63694;BME280;49839;51.798;10.954;2022-09-03T03:02:21;99161.41;;;13.59;nan
63694;BME280;49839;51.798;10.954;2022-09-03T03:04:48;99163.03;;;13.61;nan
63694;BME280;49839;51.798;10.954;2022-09-03T03:07:16;99158.47;;;13.63;nan
63694;BME280;49839;51.798;10.954;2022-09-03T03:09:45;99161.84;;;13.65;nan
63694;BME280;49839;51.798;10.954;2022-09-03T03:12:13;99163.56;;;13.66;nan
63694;BME280;49839;51.798;10.954;2022-09-03T03:14:42;99159.13;;;13.67;nan
63694;BME280;49839;51.798;10.954;2022-09-03T03:17:10;99157.31;;;13.67;nan
63694;BME280;49839;51.798;10.954;2022-09-03T03:19:37;99151.91;;;13.69;nan
63694;BME280;49839;51.798;10.954;2022-09-03T03:22:05;99147.47;;;13.69;nan
63694;BME280;49839;51.798;10.954;2022-09-03T03:24:33;99150.84;;;13.71;nan
63694;BME280;49839;51.798;10.954;2022-09-03T03:27:02;99147.34;;;13.71;nan
63694;BME280;49839;51.798;10.954;2022-09-03T03:29:32;99151.72;;;13.72;nan
63694;BME280;49839;51.798;10.954;2022-09-03T03:32:00;99149.06;;;13.72;nan
63694;BME280;49839;51.798;10.954;2022-09-03T03:34:28;99150.00;;;13.71;nan
63694;BME280;49839;51.798;10.954;2022-09-03T03:36:56;99149.25;;;13.69;nan
63694;BME280;49839;51.798;10.954;2022-09-03T03:39:25;99152.13;;;13.66;nan
63694;BME280;49839;51.798;10.954;2022-09-03T03:41:53;99160.38;;;13.61;nan
63694;BME280;49839;51.798;10.954;2022-09-03T03:44:22;99157.91;;;13.58;nan
63694;BME280;49839;51.798;10.954;2022-09-03T03:46:49;99158.03;;;13.57;nan
63694;BME280;49839;51.798;10.954;2022-09-03T03:49:17;99158.25;;;13.53;nan
63694;BME280;49839;51.798;10.954;2022-09-03T03:51:44;99158.31;;;13.52;nan
63694;BME280;49839;51.798;10.954;2022-09-03T03:54:12;99158.63;;;13.47;nan
63694;BME280;49839;51.798;10.954;2022-09-03T03:56:42;99157.13;;;13.43;nan
63694;BME280;49839;51.798;10.954;2022-09-03T03:59:10;99166.13;;;13.41;nan
63694;BME280;49839;51.798;10.954;2022-09-03T04:01:39;99161.97;;;13.37;nan
63694;BME280;49839;51.798;10.954;2022-09-03T04:04:06;99168.34;;;13.34;nan
63694;BME280;49839;51.798;10.954;2022-09-03T04:06:34;99157.94;;;13.31;nan
63694;BME280;49839;51.798;10.954;2022-09-03T04:09:02;99159.19;;;13.25;nan
63694;BME280;49839;51.798;10.954;2022-09-03T04:11:29;99161.31;;;13.20;nan
63694;BME280;49839;51.798;10.954;2022-09-03T04:13:57;99158.16;;;13.14;nan
63694;BME280;49839;51.798;10.954;2022-09-03T04:16:26;99160.44;;;13.06;nan
63694;BME280;49839;51.798;10.954;2022-09-03T04:18:55;99175.75;;;13.00;nan
63694;BME280;49839;51.798;10.954;2022-09-03T04:21:25;99162.06;;;12.94;nan
63694;BME280;49839;51.798;10.954;2022-09-03T04:23:54;99156.97;;;12.91;nan
63694;BME280;49839;51.798;10.954;2022-09-03T04:26:23;99171.16;;;12.90;nan
63694;BME280;49839;51.798;10.954;2022-09-03T04:28:51;99163.34;;;12.88;nan
63694;BME280;49839;51.798;10.954;2022-09-03T04:31:20;99167.94;;;12.85;nan
63694;BME280;49839;51.798;10.954;2022-09-03T04:33:48;99162.94;;;12.80;nan
63694;BME280;49839;51.798;10.954;2022-09-03T04:36:19;99162.00;;;12.81;nan
63694;BME280;49839;51.798;10.954;2022-09-03T04:38:49;99159.34;;;12.81;nan
63694;BME280;49839;51.798;10.954;2022-09-03T04:41:17;99158.13;;;12.87;nan
63694;BME280;49839;51.798;10.954;2022-09-03T04:43:45;99164.25;;;12.87;nan
63694;BME280;49839;51.798;10.954;2022-09-03T04:46:17;99162.44;;;12.88;nan
63694;BME280;49839;51.798;10.954;2022-09-03T04:48:47;99158.13;;;12.87;nan
63694;BME280;49839;51.798;10.954;2022-09-03T04:51:19;99162.28;;;12.91;nan
63694;BME280;49839;51.798;10.954;2022-09-03T04:53:52;99155.94;;;12.93;nan
63694;BME280;49839;51.798;10.954;2022-09-03T04:56:22;99163.00;;;12.93;nan
63694;BME280;49839;51.798;10.954;2022-09-03T04:58:54;99162.06;;;12.94;nan
63694;BME280;49839;51.798;10.954;2022-09-03T05:01:23;99160.09;;;12.97;nan
63694;BME280;49839;51.798;10.954;2022-09-03T05:03:51;99169.53;;;13.01;nan
63694;BME280;49839;51.798;10.954;2022-09-03T05:06:20;99158.94;;;13.01;nan
63694;BME280;49839;51.798;10.954;2022-09-03T05:08:48;99162.22;;;13.05;nan
63694;BME280;49839;51.798;10.954;2022-09-03T05:11:16;99162.91;;;13.09;nan
63694;BME280;49839;51.798;10.954;2022-09-03T05:13:46;99161.00;;;13.11;nan
63694;BME280;49839;51.798;10.954;2022-09-03T05:16:15;99156.56;;;13.11;nan
63694;BME280;49839;51.798;10.954;2022-09-03T05:18:43;99165.03;;;13.16;nan
63694;BME280;49839;51.798;10.954;2022-09-03T05:21:14;99157.69;;;13.21;nan
63694;BME280;49839;51.798;10.954;2022-09-03T05:23:44;99163.22;;;13.31;nan
63694;BME280;49839;51.798;10.954;2022-09-03T05:26:15;99159.22;;;13.38;nan
63694;BME280;49839;51.798;10.954;2022-09-03T05:28:43;99163.16;;;13.45;nan
63694;BME280;49839;51.798;10.954;2022-09-03T05:31:12;99166.06;;;13.55;nan
63694;BME280;49839;51.798;10.954;2022-09-03T05:33:42;99159.81;;;13.56;nan
63694;BME280;49839;51.798;10.954;2022-09-03T05:36:11;99168.88;;;13.66;nan
63694;BME280;49839;51.798;10.954;2022-09-03T05:38:39;99165.41;;;13.91;nan
63694;BME280;49839;51.798;10.954;2022-09-03T05:41:10;99165.22;;;14.32;nan
63694;BME280;49839;51.798;10.954;2022-09-03T05:43:38;99177.53;;;14.72;nan
63694;BME280;49839;51.798;10.954;2022-09-03T05:46:07;99173.03;;;15.22;nan
63694;BME280;49839;51.798;10.954;2022-09-03T05:48:37;99161.59;;;15.69;nan
63694;BME280;49839;51.798;10.954;2022-09-03T05:51:06;99162.56;;;16.14;nan
63694;BME280;49839;51.798;10.954;2022-09-03T05:53:35;99158.03;;;16.72;nan
63694;BME280;49839;51.798;10.954;2022-09-03T05:56:05;99150.25;;;17.03;nan
63694;BME280;49839;51.798;10.954;2022-09-03T05:58:41;99156.44;;;17.47;nan
63694;BME280;49839;51.798;10.954;2022-09-03T06:01:11;99156.56;;;17.77;nan
63694;BME280;49839;51.798;10.954;2022-09-03T06:03:40;99154.13;;;18.06;nan
63694;BME280;49839;51.798;10.954;2022-09-03T06:06:09;99149.72;;;18.47;nan
63694;BME280;49839;51.798;10.954;2022-09-03T06:08:37;99151.78;;;18.64;nan
63694;BME280;49839;51.798;10.954;2022-09-03T06:11:05;99154.00;;;19.00;nan
63694;BME280;49839;51.798;10.954;2022-09-03T06:13:33;99157.59;;;19.29;nan
63694;BME280;49839;51.798;10.954;2022-09-03T06:16:06;99163.81;;;19.49;nan
63694;BME280;49839;51.798;10.954;2022-09-03T06:18:34;99153.59;;;19.73;nan
63694;BME280;49839;51.798;10.954;2022-09-03T06:21:04;99160.47;;;20.05;nan
63694;BME280;49839;51.798;10.954;2022-09-03T06:23:33;99158.91;;;20.12;nan
63694;BME280;49839;51.798;10.954;2022-09-03T06:26:04;99164.47;;;20.28;nan
63694;BME280;49839;51.798;10.954;2022-09-03T06:28:32;99165.47;;;20.47;nan
63694;BME280;49839;51.798;10.954;2022-09-03T06:31:03;99164.44;;;20.58;nan
63694;BME280;49839;51.798;10.954;2022-09-03T06:33:33;99167.84;;;20.87;nan
63694;BME280;49839;51.798;10.954;2022-09-03T06:36:02;99167.84;;;21.15;nan
63694;BME280;49839;51.798;10.954;2022-09-03T06:38:35;99173.31;;;20.95;nan
63694;BME280;49839;51.798;10.954;2022-09-03T06:41:04;99169.53;;;20.88;nan
63694;BME280;49839;51.798;10.954;2022-09-03T06:43:33;99158.00;;;21.05;nan
63694;BME280;49839;51.798;10.954;2022-09-03T06:46:04;99160.69;;;21.05;nan
63694;BME280;49839;51.798;10.954;2022-09-03T06:48:34;99164.59;;;21.11;nan
63694;BME280;49839;51.798;10.954;2022-09-03T06:51:04;99166.56;;;20.91;nan
63694;BME280;49839;51.798;10.954;2022-09-03T06:53:34;99165.31;;;21.41;nan
63694;BME280;49839;51.798;10.954;2022-09-03T06:56:04;99160.72;;;21.69;nan
63694;BME280;49839;51.798;10.954;2022-09-03T06:58:34;99163.72;;;21.83;nan
63694;BME280;49839;51.798;10.954;2022-09-03T07:01:06;99165.63;;;21.73;nan
63694;BME280;49839;51.798;10.954;2022-09-03T07:03:34;99161.78;;;21.94;nan
63694;BME280;49839;51.798;10.954;2022-09-03T07:06:04;99166.63;;;21.90;nan
63694;BME280;49839;51.798;10.954;2022-09-03T07:08:33;99162.09;;;21.90;nan
63694;BME280;49839;51.798;10.954;2022-09-03T07:11:02;99150.97;;;22.03;nan
63694;BME280;49839;51.798;10.954;2022-09-03T07:13:34;99155.53;;;22.29;nan
63694;BME280;49839;51.798;10.954;2022-09-03T07:16:05;99160.13;;;22.36;nan
63694;BME280;49839;51.798;10.954;2022-09-03T07:18:34;99165.91;;;22.24;nan
63694;BME280;49839;51.798;10.954;2022-09-03T07:21:04;99166.78;;;22.32;nan
63694;BME280;49839;51.798;10.954;2022-09-03T07:23:33;99170.44;;;22.49;nan
63694;BME280;49839;51.798;10.954;2022-09-03T07:26:02;99162.88;;;22.53;nan
63694;BME280;49839;51.798;10.954;2022-09-03T07:28:30;99163.31;;;22.40;nan
63694;BME280;49839;51.798;10.954;2022-09-03T07:31:01;99162.06;;;22.26;nan
63694;BME280;49839;51.798;10.954;2022-09-03T07:33:31;99157.47;;;22.44;nan
63694;BME280;49839;51.798;10.954;2022-09-03T07:36:03;99155.34;;;22.48;nan
63694;BME280;49839;51.798;10.954;2022-09-03T07:38:31;99151.69;;;22.91;nan
63694;BME280;49839;51.798;10.954;2022-09-03T07:41:00;99152.66;;;23.24;nan
63694;BME280;49839;51.798;10.954;2022-09-03T07:43:33;99147.59;;;23.21;nan
63694;BME280;49839;51.798;10.954;2022-09-03T07:46:01;99150.50;;;23.36;nan
63694;BME280;49839;51.798;10.954;2022-09-03T07:48:28;99149.00;;;23.34;nan
63694;BME280;49839;51.798;10.954;2022-09-03T07:51:02;99149.25;;;23.65;nan
63694;BME280;49839;51.798;10.954;2022-09-03T07:53:29;99154.63;;;23.65;nan
63694;BME280;49839;51.798;10.954;2022-09-03T07:56:01;99155.13;;;23.68;nan
63694;BME280;49839;51.798;10.954;2022-09-03T07:58:29;99154.13;;;23.94;nan
63694;BME280;49839;51.798;10.954;2022-09-03T08:00:57;99147.22;;;24.16;nan
63694;BME280;49839;51.798;10.954;2022-09-03T08:03:24;99157.16;;;24.15;nan
63694;BME280;49839;51.798;10.954;2022-09-03T08:05:52;99153.09;;;24.19;nan
63694;BME280;49839;51.798;10.954;2022-09-03T08:08:22;99151.22;;;24.52;nan
63694;BME280;49839;51.798;10.954;2022-09-03T08:10:50;99156.81;;;24.90;nan
63694;BME280;49839;51.798;10.954;2022-09-03T08:13:17;99153.31;;;24.81;nan
63694;BME280;49839;51.798;10.954;2022-09-03T08:15:52;99153.03;;;24.68;nan
63694;BME280;49839;51.798;10.954;2022-09-03T08:18:20;99150.69;;;24.57;nan
63694;BME280;49839;51.798;10.954;2022-09-03T08:20:49;99157.44;;;24.61;nan
63694;BME280;49839;51.798;10.954;2022-09-03T08:23:16;99158.59;;;24.58;nan
63694;BME280;49839;51.798;10.954;2022-09-03T08:25:45;99155.84;;;24.83;nan
63694;BME280;49839;51.798;10.954;2022-09-03T08:28:13;99150.47;;;24.75;nan
63694;BME280;49839;51.798;10.954;2022-09-03T08:30:41;99143.63;;;24.56;nan
63694;BME280;49839;51.798;10.954;2022-09-03T08:33:08;99149.59;;;24.82;nan
63694;BME280;49839;51.798;10.954;2022-09-03T08:35:36;99144.38;;;25.28;nan
63694;BME280;49839;51.798;10.954;2022-09-03T08:38:04;99146.25;;;25.51;nan
63694;BME280;49839;51.798;10.954;2022-09-03T08:40:36;99146.03;;;25.29;nan
63694;BME280;49839;51.798;10.954;2022-09-03T08:43:09;99149.94;;;25.27;nan
63694;BME280;49839;51.798;10.954;2022-09-03T08:45:38;99136.41;;;25.35;nan
63694;BME280;49839;51.798;10.954;2022-09-03T08:48:09;99129.28;;;25.42;nan
63694;BME280;49839;51.798;10.954;2022-09-03T08:50:40;99135.06;;;25.00;nan
63694;BME280;49839;51.798;10.954;2022-09-03T08:53:14;99131.69;;;24.98;nan
63694;BME280;49839;51.798;10.954;2022-09-03T08:55:50;99125.63;;;24.96;nan
63694;BME280;49839;51.798;10.954;2022-09-03T08:58:21;99140.72;;;24.74;nan
63694;BME280;49839;51.798;10.954;2022-09-03T09:00:53;99141.38;;;24.76;nan
63694;BME280;49839;51.798;10.954;2022-09-03T09:03:41;99125.59;;;25.12;nan
63694;BME280;49839;51.798;10.954;2022-09-03T09:06:17;99132.41;;;25.54;nan
63694;BME280;49839;51.798;10.954;2022-09-03T09:08:56;99129.50;;;25.55;nan
63694;BME280;49839;51.798;10.954;2022-09-03T09:11:36;99120.06;;;25.59;nan
63694;BME280;49839;51.798;10.954;2022-09-03T09:14:14;99129.63;;;25.62;nan
63694;BME280;49839;51.798;10.954;2022-09-03T09:16:49;99137.28;;;25.27;nan
63694;BME280;49839;51.798;10.954;2022-09-03T09:19:30;99131.63;;;24.75;nan
63694;BME280;49839;51.798;10.954;2022-09-03T09:22:06;99115.97;;;24.70;nan
63694;BME280;49839;51.798;10.954;2022-09-03T09:24:39;99112.66;;;24.99;nan
63694;BME280;49839;51.798;10.954;2022-09-03T09:27:08;99131.28;;;24.70;nan
63694;BME280;49839;51.798;10.954;2022-09-03T09:29:45;99111.19;;;24.89;nan
63694;BME280;49839;51.798;10.954;2022-09-03T09:32:15;99129.94;;;24.74;nan
63694;BME280;49839;51.798;10.954;2022-09-03T09:34:45;99122.88;;;24.65;nan
63694;BME280;49839;51.798;10.954;2022-09-03T09:37:17;99118.19;;;24.58;nan
63694;BME280;49839;51.798;10.954;2022-09-03T09:39:54;99119.09;;;24.43;nan
63694;BME280;49839;51.798;10.954;2022-09-03T09:42:23;99115.22;;;24.93;nan
63694;BME280;49839;51.798;10.954;2022-09-03T09:44:52;99120.41;;;24.55;nan
63694;BME280;49839;51.798;10.954;2022-09-03T09:47:21;99114.97;;;25.02;nan
63694;BME280;49839;51.798;10.954;2022-09-03T09:49:54;99103.56;;;24.61;nan
63694;BME280;49839;51.798;10.954;2022-09-03T09:52:24;99111.44;;;25.02;nan
63694;BME280;49839;51.798;10.954;2022-09-03T09:55:06;99102.72;;;24.92;nan
63694;BME280;49839;51.798;10.954;2022-09-03T09:57:34;99110.72;;;25.16;nan
63694;BME280;49839;51.798;10.954;2022-09-03T10:00:06;99113.66;;;25.06;nan
63694;BME280;49839;51.798;10.954;2022-09-03T10:02:36;99107.75;;;24.64;nan
63694;BME280;49839;51.798;10.954;2022-09-03T10:05:13;99110.13;;;25.06;nan
63694;BME280;49839;51.798;10.954;2022-09-03T10:07:42;99090.34;;;25.36;nan
63694;BME280;49839;51.798;10.954;2022-09-03T10:10:18;99096.19;;;25.48;nan
63694;BME280;49839;51.798;10.954;2022-09-03T10:12:50;99101.34;;;25.58;nan
63694;BME280;49839;51.798;10.954;2022-09-03T10:15:31;99095.63;;;25.99;nan
63694;BME280;49839;51.798;10.954;2022-09-03T10:18:07;99097.31;;;26.14;nan
63694;BME280;49839;51.798;10.954;2022-09-03T10:20:43;99090.88;;;26.01;nan
63694;BME280;49839;51.798;10.954;2022-09-03T10:23:17;99098.72;;;25.73;nan
63694;BME280;49839;51.798;10.954;2022-09-03T10:25:53;99094.19;;;25.88;nan
63694;BME280;49839;51.798;10.954;2022-09-03T10:28:25;99117.34;;;26.20;nan
63694;BME280;49839;51.798;10.954;2022-09-03T10:31:02;99098.38;;;26.28;nan
63694;BME280;49839;51.798;10.954;2022-09-03T10:33:39;99104.97;;;25.73;nan
63694;BME280;49839;51.798;10.954;2022-09-03T10:36:15;99098.25;;;25.15;nan
63694;BME280;49839;51.798;10.954;2022-09-03T10:38:50;99101.59;;;24.86;nan
63694;BME280;49839;51.798;10.954;2022-09-03T10:41:31;99092.16;;;24.43;nan
63694;BME280;49839;51.798;10.954;2022-09-03T10:44:23;99089.88;;;25.02;nan
63694;BME280;49839;51.798;10.954;2022-09-03T10:47:13;99088.94;;;25.49;nan
63694;BME280;49839;51.798;10.954;2022-09-03T10:49:50;99079.03;;;26.02;nan
63694;BME280;49839;51.798;10.954;2022-09-03T10:52:26;99083.09;;;26.35;nan
63694;BME280;49839;51.798;10.954;2022-09-03T10:55:04;99083.47;;;26.32;nan
63694;BME280;49839;51.798;10.954;2022-09-03T10:57:41;99075.97;;;26.42;nan
63694;BME280;49839;51.798;10.954;2022-09-03T11:00:14;99084.06;;;25.90;nan
63694;BME280;49839;51.798;10.954;2022-09-03T11:03:02;99086.94;;;25.43;nan
63694;BME280;49839;51.798;10.954;2022-09-03T11:05:38;99074.53;;;25.02;nan
63694;BME280;49839;51.798;10.954;2022-09-03T11:08:12;99089.47;;;24.82;nan
63694;BME280;49839;51.798;10.954;2022-09-03T11:10:45;99089.78;;;24.48;nan
63694;BME280;49839;51.798;10.954;2022-09-03T11:13:20;99074.50;;;24.24;nan
63694;BME280;49839;51.798;10.954;2022-09-03T11:15:51;99065.66;;;23.91;nan
63694;BME280;49839;51.798;10.954;2022-09-03T11:18:26;99065.13;;;23.55;nan
63694;BME280;49839;51.798;10.954;2022-09-03T11:20:59;99049.53;;;23.58;nan
63694;BME280;49839;51.798;10.954;2022-09-03T11:23:36;99062.47;;;23.63;nan
63694;BME280;49839;51.798;10.954;2022-09-03T11:26:08;99069.19;;;23.59;nan
63694;BME280;49839;51.798;10.954;2022-09-03T11:28:43;99062.63;;;23.53;nan
63694;BME280;49839;51.798;10.954;2022-09-03T11:31:23;99051.22;;;23.67;nan
63694;BME280;49839;51.798;10.954;2022-09-03T11:33:58;99044.13;;;23.50;nan
63694;BME280;49839;51.798;10.954;2022-09-03T11:36:29;99051.53;;;23.40;nan
63694;BME280;49839;51.798;10.954;2022-09-03T11:38:57;99053.38;;;23.56;nan
63694;BME280;49839;51.798;10.954;2022-09-03T11:41:27;99049.84;;;23.39;nan
63694;BME280;49839;51.798;10.954;2022-09-03T11:43:57;99050.34;;;23.34;nan
63694;BME280;49839;51.798;10.954;2022-09-03T11:46:29;99046.47;;;23.29;nan
63694;BME280;49839;51.798;10.954;2022-09-03T11:49:11;99037.41;;;23.13;nan
63694;BME280;49839;51.798;10.954;2022-09-03T11:51:40;99034.19;;;23.02;nan
63694;BME280;49839;51.798;10.954;2022-09-03T11:54:23;99030.66;;;22.93;nan
63694;BME280;49839;51.798;10.954;2022-09-03T11:57:05;99054.09;;;22.83;nan
63694;BME280;49839;51.798;10.954;2022-09-03T11:59:35;99041.84;;;22.80;nan
63694;BME280;49839;51.798;10.954;2022-09-03T12:02:11;99037.44;;;22.79;nan
63694;BME280;49839;51.798;10.954;2022-09-03T12:04:48;99035.09;;;22.76;nan
63694;BME280;49839;51.798;10.954;2022-09-03T12:07:28;99037.13;;;22.82;nan
63694;BME280;49839;51.798;10.954;2022-09-03T12:10:11;99032.91;;;22.80;nan
63694;BME280;49839;51.798;10.954;2022-09-03T12:12:51;99033.34;;;22.93;nan
63694;BME280;49839;51.798;10.954;2022-09-03T12:15:36;99025.59;;;22.98;nan
63694;BME280;49839;51.798;10.954;2022-09-03T12:18:10;99032.63;;;22.91;nan
63694;BME280;49839;51.798;10.954;2022-09-03T12:21:02;99028.28;;;22.90;nan
63694;BME280;49839;51.798;10.954;2022-09-03T12:23:31;99028.63;;;22.87;nan
63694;BME280;49839;51.798;10.954;2022-09-03T12:26:03;99028.63;;;22.95;nan
63694;BME280;49839;51.798;10.954;2022-09-03T12:28:36;99033.47;;;22.91;nan
63694;BME280;49839;51.798;10.954;2022-09-03T12:31:09;99028.28;;;22.90;nan
63694;BME280;49839;51.798;10.954;2022-09-03T12:33:48;99024.75;;;22.89;nan
63694;BME280;49839;51.798;10.954;2022-09-03T12:36:18;99020.22;;;22.98;nan
63694;BME280;49839;51.798;10.954;2022-09-03T12:38:46;99023.91;;;22.97;nan
63694;BME280;49839;51.798;10.954;2022-09-03T12:41:34;99024.94;;;22.96;nan
63694;BME280;49839;51.798;10.954;2022-09-03T12:44:03;99020.75;;;23.02;nan
63694;BME280;49839;51.798;10.954;2022-09-03T12:46:31;99015.53;;;23.08;nan
63694;BME280;49839;51.798;10.954;2022-09-03T12:49:02;99011.16;;;22.99;nan
63694;BME280;49839;51.798;10.954;2022-09-03T12:51:57;99011.50;;;22.88;nan
63694;BME280;49839;51.798;10.954;2022-09-03T12:54:31;99010.47;;;22.89;nan
63694;BME280;49839;51.798;10.954;2022-09-03T12:56:59;99011.84;;;22.93;nan
63694;BME280;49839;51.798;10.954;2022-09-03T12:59:32;99001.22;;;22.91;nan
63694;BME280;49839;51.798;10.954;2022-09-03T13:02:05;98998.59;;;23.08;nan
63694;BME280;49839;51.798;10.954;2022-09-03T13:04:40;99001.75;;;23.11;nan
63694;BME280;49839;51.798;10.954;2022-09-03T13:07:13;98983.78;;;23.12;nan
63694;BME280;49839;51.798;10.954;2022-09-03T13:09:47;98986.66;;;23.02;nan
63694;BME280;49839;51.798;10.954;2022-09-03T13:12:23;98995.53;;;23.11;nan
63694;BME280;49839;51.798;10.954;2022-09-03T13:14:55;98997.72;;;22.99;nan
63694;BME280;49839;51.798;10.954;2022-09-03T13:17:29;98993.34;;;22.90;nan
63694;BME280;49839;51.798;10.954;2022-09-03T13:20:14;99003.59;;;22.86;nan
63694;BME280;49839;51.798;10.954;2022-09-03T13:22:56;98993.13;;;22.83;nan
63694;BME280;49839;51.798;10.954;2022-09-03T13:25:29;98992.59;;;22.80;nan
63694;BME280;49839;51.798;10.954;2022-09-03T13:28:06;98988.72;;;22.66;nan
63694;BME280;49839;51.798;10.954;2022-09-03T13:30:47;99003.31;;;22.55;nan
63694;BME280;49839;51.798;10.954;2022-09-03T13:33:20;98990.69;;;22.48;nan
63694;BME280;49839;51.798;10.954;2022-09-03T13:35:59;98999.72;;;22.38;nan
63694;BME280;49839;51.798;10.954;2022-09-03T13:38:33;98990.63;;;22.31;nan
63694;BME280;49839;51.798;10.954;2022-09-03T13:41:10;98989.47;;;22.34;nan